createdAt,value
2022-09-20T00:01:41.330Z,79.76
2022-09-20T00:04:08.465Z,79.61
2022-09-20T00:06:35.816Z,79.75
2022-09-20T00:09:03.502Z,79.67
2022-09-20T00:11:32.631Z,79.45
2022-09-20T00:14:01.444Z,79.91
2022-09-20T00:16:31.770Z,79.82
2022-09-20T00:19:00.594Z,79.21
2022-09-20T00:21:29.345Z,79.63
2022-09-20T00:23:59.404Z,79.20
2022-09-20T00:26:27.661Z,79.33
2022-09-20T00:28:55.110Z,79.56
2022-09-20T00:31:22.971Z,79.30
2022-09-20T00:34:08.481Z,79.12
2022-09-20T00:36:35.047Z,79.55
2022-09-20T00:39:02.878Z,79.62
2022-09-20T00:41:31.677Z,79.27
2022-09-20T00:43:59.106Z,79.04
2022-09-20T00:46:37.798Z,79.12
2022-09-20T00:49:15.033Z,79.33
2022-09-20T00:51:46.323Z,79.24
2022-09-20T00:54:18.190Z,79.35
2022-09-20T00:56:46.762Z,79.21
2022-09-20T00:59:25.582Z,79.12
2022-09-20T01:01:57.407Z,79.14
2022-09-20T01:04:27.501Z,78.66
2022-09-20T01:06:57.839Z,79.20
2022-09-20T01:09:24.320Z,79.39
2022-09-20T01:11:52.072Z,79.42
2022-09-20T01:14:19.745Z,79.51
2022-09-20T01:16:46.365Z,78.71
2022-09-20T01:19:33.083Z,79.26
2022-09-20T01:22:04.005Z,78.91
2022-09-20T01:24:33.452Z,78.83
2022-09-20T01:27:35.683Z,79.38
2022-09-20T01:30:08.628Z,79.13
2022-09-20T01:32:47.512Z,78.72
2022-09-20T01:35:17.189Z,79.42
2022-09-20T01:38:11.017Z,79.20
2022-09-20T01:40:56.525Z,78.87
2022-09-20T01:43:52.645Z,79.04
2022-09-20T01:46:19.148Z,79.31
2022-09-20T01:48:45.850Z,78.74
2022-09-20T01:51:31.907Z,78.99
2022-09-20T01:54:09.804Z,78.66
2022-09-20T01:56:55.244Z,79.01
2022-09-20T01:59:46.718Z,78.89
2022-09-20T02:02:36.182Z,79.52
2022-09-20T02:05:24.076Z,79.03
2022-09-20T02:08:15.956Z,79.25
2022-09-20T02:11:07.028Z,79.07
2022-09-20T02:13:41.469Z,79.28
2022-09-20T02:16:48.224Z,79.65
2022-09-20T02:19:32.925Z,79.50
2022-09-20T02:22:22.632Z,79.25
2022-09-20T02:25:14.257Z,79.47
2022-09-20T02:28:17.364Z,79.81
2022-09-20T02:31:16.806Z,79.59
2022-09-20T02:33:56.161Z,79.88
2022-09-20T02:36:58.154Z,80.24
2022-09-20T02:39:36.763Z,80.49
2022-09-20T02:42:18.236Z,80.15
2022-09-20T02:45:30.875Z,80.01
2022-09-20T02:48:03.652Z,80.47
2022-09-20T02:50:59.438Z,80.57
2022-09-20T02:53:45.786Z,80.31
2022-09-20T02:56:15.249Z,80.48
2022-09-20T02:58:56.945Z,80.58
2022-09-20T03:02:00.790Z,80.28
2022-09-20T03:04:53.845Z,80.86
2022-09-20T03:07:25.869Z,80.16
2022-09-20T03:10:11.047Z,80.57
2022-09-20T03:13:00.935Z,80.98
2022-09-20T03:15:40.591Z,80.75
2022-09-20T03:18:46.094Z,80.77
2022-09-20T03:21:31.180Z,81.31
2022-09-20T03:24:35.345Z,81.58
2022-09-20T03:27:17.344Z,81.45
2022-09-20T03:30:10.163Z,81.84
2022-09-20T03:32:39.537Z,82.08
2022-09-20T03:35:26.827Z,82.22
2022-09-20T03:38:10.751Z,81.96
2022-09-20T03:41:05.253Z,81.91
2022-09-20T03:43:58.598Z,82.14
2022-09-20T03:46:29.566Z,82.01
2022-09-20T03:49:20.739Z,82.05
2022-09-20T03:52:32.570Z,81.94
2022-09-20T03:55:22.746Z,81.68
2022-09-20T03:58:12.464Z,81.51
2022-09-20T04:00:45.616Z,81.78
2022-09-20T04:03:58.748Z,81.88
2022-09-20T04:07:02.768Z,81.85
2022-09-20T04:09:37.742Z,81.61
2022-09-20T04:12:20.964Z,81.43
2022-09-20T04:15:02.996Z,81.46
2022-09-20T04:17:32.524Z,81.68
2022-09-20T04:20:07.053Z,81.88
2022-09-20T04:22:33.690Z,81.92
2022-09-20T04:25:12.908Z,81.97
2022-09-20T04:27:45.305Z,81.74
2022-09-20T04:30:19.756Z,81.82
2022-09-20T04:32:52.404Z,81.62
2022-09-20T04:36:05.692Z,81.80
2022-09-20T04:38:33.915Z,81.95
2022-09-20T04:41:12.889Z,82.00
2022-09-20T04:43:53.728Z,81.69
2022-09-20T04:46:56.265Z,81.74
2022-09-20T04:49:53.329Z,81.92
2022-09-20T04:52:29.105Z,81.65
2022-09-20T04:55:27.129Z,81.80
2022-09-20T04:58:24.337Z,82.07
2022-09-20T05:01:19.895Z,82.11
2022-09-20T05:04:08.173Z,82.18
2022-09-20T05:07:04.343Z,82.27
2022-09-20T05:10:11.205Z,82.06
2022-09-20T05:12:54.617Z,81.64
2022-09-20T05:15:39.429Z,82.09
2022-09-20T05:18:20.973Z,82.42
2022-09-20T05:21:09.324Z,82.25
2022-09-20T05:23:55.445Z,82.02
2022-09-20T05:26:58.233Z,82.19
2022-09-20T05:29:49.038Z,82.16
2022-09-20T05:32:29.174Z,81.74
2022-09-20T05:35:06.731Z,81.92
2022-09-20T05:38:03.927Z,81.60
2022-09-20T05:40:49.239Z,81.85
2022-09-20T05:43:38.216Z,81.84
2022-09-20T05:46:27.934Z,81.80
2022-09-20T05:49:12.169Z,82.26
2022-09-20T05:52:07.903Z,81.81
2022-09-20T05:55:01.289Z,81.92
2022-09-20T05:58:04.976Z,81.77
2022-09-20T06:00:42.302Z,81.74
2022-09-20T06:03:35.698Z,81.55
2022-09-20T06:06:38.193Z,81.36
2022-09-20T06:09:42.312Z,81.32
2022-09-20T06:12:26.271Z,80.89
2022-09-20T06:15:22.581Z,80.93
2022-09-20T06:18:20.487Z,80.60
2022-09-20T06:20:50.896Z,81.40
2022-09-20T06:23:18.340Z,80.88
2022-09-20T06:26:00.662Z,81.01
2022-09-20T06:28:32.344Z,80.82
2022-09-20T06:30:58.967Z,81.07
2022-09-20T06:33:28.249Z,81.09
2022-09-20T06:36:22.073Z,81.11
2022-09-20T06:39:41.718Z,81.41
2022-09-20T06:42:10.143Z,81.34
2022-09-20T06:44:41.134Z,80.38
2022-09-20T06:47:10.742Z,81.31
2022-09-20T06:49:37.230Z,80.54
2022-09-20T06:52:07.844Z,81.15
2022-09-20T06:54:34.734Z,80.62
2022-09-20T06:57:04.722Z,81.25
2022-09-20T06:59:31.888Z,82.11
2022-09-20T07:01:58.563Z,81.79
2022-09-20T07:04:26.909Z,80.81
2022-09-20T07:07:08.631Z,80.79
2022-09-20T07:09:37.455Z,80.33
2022-09-20T07:12:04.054Z,80.29
2022-09-20T07:14:31.121Z,80.51
2022-09-20T07:16:57.597Z,80.53
2022-09-20T07:19:26.415Z,79.70
2022-09-20T07:21:54.029Z,79.10
2022-09-20T07:24:20.494Z,78.56
2022-09-20T07:27:03.568Z,77.81
2022-09-20T07:29:30.304Z,77.55
2022-09-20T07:31:57.244Z,76.69
2022-09-20T07:34:24.251Z,76.18
2022-09-20T07:36:51.240Z,75.74
2022-09-20T07:39:18.096Z,76.03
2022-09-20T07:41:48.585Z,75.78
2022-09-20T07:44:21.990Z,74.16
2022-09-20T07:46:49.521Z,74.70
2022-09-20T07:49:16.083Z,73.95
2022-09-20T07:51:42.636Z,73.71
2022-09-20T07:54:09.420Z,73.65
2022-09-20T07:56:36.334Z,72.65
2022-09-20T07:59:02.934Z,71.33
2022-09-20T08:01:29.890Z,70.60
2022-09-20T08:03:57.388Z,69.56
2022-09-20T08:06:24.316Z,70.20
2022-09-20T08:08:51.740Z,71.71
2022-09-20T08:11:27.764Z,71.51
2022-09-20T08:14:11.349Z,71.61
2022-09-20T08:16:47.116Z,72.25
2022-09-20T08:19:21.900Z,72.44
2022-09-20T08:21:50.037Z,72.56
2022-09-20T08:24:17.158Z,73.57
2022-09-20T08:26:44.039Z,72.51
2022-09-20T08:29:11.631Z,73.30
2022-09-20T08:31:42.167Z,72.91
2022-09-20T08:34:10.297Z,73.04
2022-09-20T08:36:46.258Z,72.50
2022-09-20T08:42:19.959Z,72.44
2022-09-20T08:44:59.520Z,73.35
2022-09-20T08:47:36.689Z,73.46
2022-09-20T08:50:10.351Z,72.71
2022-09-20T08:52:40.104Z,74.12
2022-09-20T08:55:37.647Z,74.84
2022-09-20T08:58:08.538Z,74.97
2022-09-20T09:00:37.276Z,74.47
2022-09-20T09:03:12.043Z,74.65
2022-09-20T09:05:45.499Z,75.93
2022-09-20T09:08:16.569Z,75.08
2022-09-20T09:10:52.611Z,74.03
2022-09-20T09:13:25.921Z,73.24
2022-09-20T09:15:59.580Z,73.78
2022-09-20T09:18:36.313Z,73.58
2022-09-20T09:21:04.914Z,74.03
2022-09-20T09:23:50.288Z,72.98
2022-09-20T09:26:21.129Z,72.61
2022-09-20T09:29:14.903Z,72.48
2022-09-20T09:31:41.749Z,72.10
2022-09-20T09:34:31.279Z,69.96
2022-09-20T09:36:58.398Z,69.55
2022-09-20T09:39:30.466Z,68.58
2022-09-20T09:42:01.124Z,68.12
2022-09-20T09:44:32.722Z,67.29
2022-09-20T09:46:59.947Z,67.07
2022-09-20T09:49:34.259Z,64.16
2022-09-20T09:52:03.528Z,66.18
2022-09-20T09:54:47.075Z,63.99
2022-09-20T09:57:22.410Z,64.54
2022-09-20T10:00:20.978Z,63.96
2022-09-20T10:03:07.784Z,62.59
2022-09-20T10:05:54.134Z,62.83
2022-09-20T10:08:39.952Z,62.66
2022-09-20T10:11:32.748Z,63.52
2022-09-20T10:14:20.671Z,64.46
2022-09-20T10:17:16.665Z,63.52
2022-09-20T10:20:08.793Z,63.93
2022-09-20T10:23:21.425Z,64.38
2022-09-20T10:25:41.446Z,64.18
2022-09-20T10:28:48.540Z,63.48
2022-09-20T10:31:39.251Z,64.62
2022-09-20T10:34:22.765Z,63.48
2022-09-20T10:36:55.747Z,64.49
2022-09-20T10:39:29.379Z,64.32
2022-09-20T10:42:40.713Z,64.66
2022-09-20T10:45:17.694Z,65.71
2022-09-20T10:48:19.380Z,65.58
2022-09-20T10:50:58.073Z,65.89
2022-09-20T10:53:33.793Z,65.84
2022-09-20T10:56:09.665Z,65.83
2022-09-20T10:59:14.478Z,65.12
2022-09-20T11:02:19.679Z,64.67
2022-09-20T11:05:16.943Z,63.91
2022-09-20T11:07:54.778Z,63.53
2022-09-20T11:10:25.441Z,60.68
2022-09-20T11:12:55.433Z,59.93
2022-09-20T11:15:32.397Z,60.29
2022-09-20T11:18:23.446Z,59.54
2022-09-20T11:21:02.130Z,59.07
2022-09-20T11:24:00.794Z,56.82
2022-09-20T11:26:52.038Z,58.46
2022-09-20T11:29:27.574Z,58.24
2022-09-20T11:32:00.726Z,59.07
2022-09-20T11:34:36.446Z,56.84
2022-09-20T11:37:03.232Z,57.77
2022-09-20T11:39:54.522Z,57.86
2022-09-20T11:42:24.255Z,58.17
2022-09-20T11:44:51.368Z,58.82
2022-09-20T11:47:49.737Z,58.52
2022-09-20T11:50:34.777Z,57.18
2022-09-20T11:53:36.668Z,54.90
2022-09-20T11:56:11.067Z,56.05
2022-09-20T11:59:05.750Z,55.68
2022-09-20T12:01:39.096Z,55.89
2022-09-20T12:04:32.412Z,54.91
2022-09-20T12:07:18.102Z,55.03
2022-09-20T12:10:01.102Z,56.18
2022-09-20T12:12:44.017Z,55.20
2022-09-20T12:15:23.858Z,56.72
2022-09-20T12:17:51.211Z,54.25
2022-09-20T12:20:33.015Z,56.89
2022-09-20T12:23:36.995Z,56.69
2022-09-20T12:26:06.518Z,55.96
2022-09-20T12:28:44.489Z,55.67
2022-09-20T12:31:26.139Z,56.23
2022-09-20T12:34:10.885Z,55.44
2022-09-20T12:36:37.438Z,53.64
2022-09-20T12:39:22.393Z,55.05
2022-09-20T12:41:49.894Z,54.72
2022-09-20T12:44:35.353Z,55.41
2022-09-20T12:47:17.295Z,55.38
2022-09-20T12:50:05.511Z,53.40
2022-09-20T12:52:50.339Z,54.88
2022-09-20T12:55:29.896Z,53.07
2022-09-20T12:58:01.394Z,53.88
2022-09-20T13:00:50.335Z,54.21
2022-09-20T13:03:43.996Z,52.40
2022-09-20T13:06:19.354Z,53.64
2022-09-20T13:09:01.147Z,52.86
2022-09-20T13:11:33.566Z,53.65
2022-09-20T13:14:07.086Z,54.84
2022-09-20T13:16:49.822Z,50.44
2022-09-20T13:19:20.343Z,49.62
2022-09-20T13:21:56.412Z,52.75
2022-09-20T13:24:27.604Z,52.31
2022-09-20T13:26:59.449Z,51.45
2022-09-20T13:29:33.078Z,51.72
2022-09-20T13:32:35.858Z,50.61
2022-09-20T13:35:23.981Z,51.78
2022-09-20T13:37:56.022Z,51.67
2022-09-20T13:40:33.592Z,51.34
2022-09-20T13:43:23.011Z,51.78
2022-09-20T13:45:56.167Z,51.95
2022-09-20T13:48:30.341Z,52.08
2022-09-20T13:50:57.437Z,50.21
2022-09-20T13:53:40.982Z,49.97
2022-09-20T13:56:20.191Z,53.52
2022-09-20T13:58:48.224Z,51.13
2022-09-20T14:01:29.209Z,51.51
2022-09-20T14:04:05.259Z,53.23
2022-09-20T14:06:32.405Z,52.72
2022-09-20T14:09:02.114Z,54.49
2022-09-20T14:11:33.776Z,54.67
2022-09-20T14:14:03.114Z,53.17
2022-09-20T14:16:34.759Z,55.01
2022-09-20T14:19:03.104Z,53.70
2022-09-20T14:21:32.771Z,54.17
2022-09-20T14:24:03.121Z,53.85
2022-09-20T14:26:37.545Z,54.10
2022-09-20T14:29:43.147Z,54.79
2022-09-20T14:32:36.131Z,52.34
2022-09-20T14:35:08.278Z,51.50
2022-09-20T14:37:49.851Z,49.91
2022-09-20T14:40:26.904Z,50.19
2022-09-20T14:43:05.596Z,51.77
2022-09-20T14:45:41.178Z,52.24
2022-09-20T14:48:11.641Z,52.18
2022-09-20T14:50:46.446Z,53.89
2022-09-20T14:53:18.744Z,52.56
2022-09-20T14:56:04.391Z,53.27
2022-09-20T14:58:35.474Z,54.86
2022-09-20T15:01:07.175Z,54.87
2022-09-20T15:03:41.425Z,55.08
2022-09-20T15:06:14.262Z,56.50
2022-09-20T15:08:46.146Z,56.40
2022-09-20T15:11:19.363Z,55.95
2022-09-20T15:13:46.004Z,55.35
2022-09-20T15:16:21.159Z,53.83
2022-09-20T15:18:47.969Z,53.85
2022-09-20T15:21:14.409Z,54.54
2022-09-20T15:23:41.173Z,55.48
2022-09-20T15:26:15.032Z,54.11
2022-09-20T15:28:41.498Z,52.60
2022-09-20T15:31:09.480Z,51.67
2022-09-20T15:33:36.059Z,51.29
2022-09-20T15:36:03.214Z,49.86
2022-09-20T15:38:30.429Z,49.33
2022-09-20T15:41:00.206Z,49.82
2022-09-20T15:43:27.969Z,48.30
2022-09-20T15:45:57.024Z,49.14
2022-09-20T15:48:26.118Z,47.93
2022-09-20T15:51:13.319Z,52.18
2022-09-20T15:53:45.483Z,50.29
2022-09-20T15:56:23.958Z,52.22
2022-09-20T15:58:52.188Z,53.31
2022-09-20T16:01:19.563Z,52.30
2022-09-20T16:03:47.157Z,52.64
2022-09-20T16:06:13.858Z,54.70
2022-09-20T16:08:42.477Z,54.37
2022-09-20T16:11:12.818Z,56.07
2022-09-20T16:13:39.639Z,56.09
2022-09-20T16:16:08.604Z,56.50
2022-09-20T16:18:54.978Z,55.53
2022-09-20T16:21:22.241Z,56.91
2022-09-20T16:23:52.281Z,55.97
2022-09-20T16:26:21.163Z,55.60
2022-09-20T16:28:49.092Z,55.65
2022-09-20T16:31:34.887Z,55.40
2022-09-20T16:34:03.702Z,55.40
2022-09-20T16:36:31.248Z,56.41
2022-09-20T16:38:58.642Z,58.61
2022-09-20T16:41:26.998Z,58.28
2022-09-20T16:43:53.715Z,58.41
2022-09-20T16:46:27.819Z,55.30
2022-09-20T16:48:55.691Z,57.51
2022-09-20T16:51:26.815Z,55.45
2022-09-20T16:53:55.777Z,55.60
2022-09-20T16:56:24.551Z,53.83
2022-09-20T16:58:51.466Z,55.49
2022-09-20T17:01:21.089Z,55.43
2022-09-20T17:03:47.671Z,56.69
2022-09-20T17:06:16.801Z,57.28
2022-09-20T17:08:45.013Z,58.51
2022-09-20T17:11:17.148Z,59.95
2022-09-20T17:13:45.389Z,59.04
2022-09-20T17:16:14.385Z,57.49
2022-09-20T17:18:43.134Z,60.12
2022-09-20T17:21:16.567Z,59.55
2022-09-20T17:23:50.626Z,58.86
2022-09-20T17:26:26.418Z,60.82
2022-09-20T17:28:56.439Z,60.43
2022-09-20T17:31:32.069Z,61.89
2022-09-20T17:34:04.159Z,62.49
2022-09-20T17:36:33.288Z,61.82
2022-09-20T17:39:08.355Z,62.34
2022-09-20T17:41:36.655Z,63.11
2022-09-20T17:44:12.317Z,63.38
2022-09-20T17:46:47.152Z,62.76
2022-09-20T17:49:21.894Z,64.46
2022-09-20T17:51:53.958Z,64.52
2022-09-20T17:54:22.021Z,63.68
2022-09-20T17:56:50.571Z,64.23
2022-09-20T17:59:20.143Z,64.51
2022-09-20T18:01:49.367Z,64.75
2022-09-20T18:04:16.211Z,65.40
2022-09-20T18:06:47.829Z,65.30
2022-09-20T18:09:19.590Z,65.04
2022-09-20T18:11:51.616Z,65.37
2022-09-20T18:14:20.566Z,65.70
2022-09-20T18:16:47.738Z,65.68
2022-09-20T18:19:16.837Z,66.44
2022-09-20T18:21:43.814Z,65.88
2022-09-20T18:24:14.170Z,66.34
2022-09-20T18:26:41.012Z,66.48
2022-09-20T18:29:12.214Z,66.76
2022-09-20T18:31:55.653Z,66.75
2022-09-20T18:34:24.257Z,66.85
2022-09-20T18:36:53.746Z,66.84
2022-09-20T18:39:25.397Z,67.65
2022-09-20T18:41:53.414Z,66.95
2022-09-20T18:44:21.399Z,67.58
2022-09-20T18:46:51.219Z,67.60
2022-09-20T18:49:17.830Z,68.02
2022-09-20T18:51:48.422Z,68.18
2022-09-20T18:54:15.037Z,69.09
2022-09-20T18:56:43.524Z,68.17
2022-09-20T18:59:23.074Z,68.79
2022-09-20T19:02:08.304Z,68.84
2022-09-20T19:04:52.047Z,68.83
2022-09-20T19:07:28.035Z,69.33
2022-09-20T19:10:06.757Z,68.74
2022-09-20T19:12:59.088Z,68.70
2022-09-20T19:15:52.388Z,68.22
2022-09-20T19:18:35.634Z,68.75
2022-09-20T19:21:32.518Z,68.60
2022-09-20T19:24:25.378Z,68.94
2022-09-20T19:26:55.263Z,69.34
2022-09-20T19:29:27.727Z,69.14
2022-09-20T19:31:57.029Z,69.33
2022-09-20T19:34:28.948Z,69.14
2022-09-20T19:37:18.885Z,69.08
2022-09-20T19:40:29.902Z,69.20
2022-09-20T19:43:19.389Z,69.58
2022-09-20T19:46:11.584Z,69.34
2022-09-20T19:48:40.553Z,69.22
2022-09-20T19:51:12.153Z,68.88
2022-09-20T19:53:39.248Z,69.29
2022-09-20T19:56:15.162Z,69.08
2022-09-20T19:58:43.279Z,69.26
2022-09-20T20:01:10.186Z,69.51
2022-09-20T20:03:37.155Z,69.55
2022-09-20T20:06:16.505Z,69.51
2022-09-20T20:08:55.917Z,69.77
2022-09-20T20:11:50.201Z,69.83
2022-09-20T20:14:24.351Z,69.23
2022-09-20T20:17:14.811Z,69.32
2022-09-20T20:20:05.865Z,69.99
2022-09-20T20:22:32.310Z,69.65
2022-09-20T20:24:59.224Z,69.78
2022-09-20T20:27:28.462Z,69.89
2022-09-20T20:29:55.602Z,70.15
2022-09-20T20:32:22.458Z,69.91
2022-09-20T20:34:49.449Z,69.47
2022-09-20T20:37:16.079Z,69.90
2022-09-20T20:39:42.609Z,70.23
2022-09-20T20:42:12.941Z,69.99
2022-09-20T20:44:39.986Z,70.50
2022-09-20T20:47:06.742Z,71.17
2022-09-20T20:49:33.270Z,71.43
2022-09-20T20:52:04.246Z,71.18
2022-09-20T20:54:31.898Z,71.33
2022-09-20T20:56:59.305Z,70.88
2022-09-20T20:59:26.144Z,70.83
2022-09-20T21:01:53.306Z,70.85
2022-09-20T21:04:20.113Z,70.89
2022-09-20T21:06:46.604Z,70.78
2022-09-20T21:09:13.478Z,70.98
2022-09-20T21:11:44.368Z,70.26
2022-09-20T21:14:12.518Z,71.17
2022-09-20T21:16:45.009Z,71.07
2022-09-20T21:19:14.922Z,71.02
2022-09-20T21:21:43.304Z,71.40
2022-09-20T21:24:12.421Z,72.28
2022-09-20T21:26:40.290Z,72.70
2022-09-20T21:29:10.566Z,71.77
2022-09-20T21:31:39.480Z,72.98
2022-09-20T21:34:07.539Z,72.34
2022-09-20T21:36:36.681Z,72.91
2022-09-20T21:39:04.332Z,72.26
2022-09-20T21:41:33.368Z,72.46
2022-09-20T21:44:02.446Z,72.81
2022-09-20T21:46:37.207Z,72.93
2022-09-20T21:49:05.509Z,73.24
2022-09-20T21:51:33.384Z,72.83
2022-09-20T21:54:01.827Z,72.88
2022-09-20T21:56:36.295Z,73.72
2022-09-20T21:59:04.397Z,72.88
2022-09-20T22:01:34.465Z,73.67
2022-09-20T22:04:04.902Z,73.69
2022-09-20T22:06:34.565Z,73.65
2022-09-20T22:09:04.058Z,73.48
2022-09-20T22:11:33.295Z,73.33
2022-09-20T22:14:00.110Z,73.24
2022-09-20T22:16:29.560Z,73.70
2022-09-20T22:18:56.801Z,73.70
2022-09-20T22:21:25.612Z,73.57
2022-09-20T22:23:57.685Z,73.08
2022-09-20T22:26:26.736Z,73.00
2022-09-20T22:28:53.434Z,73.74
2022-09-20T22:31:25.285Z,74.38
2022-09-20T22:33:54.776Z,74.21
2022-09-20T22:36:26.918Z,74.28
2022-09-20T22:38:54.142Z,74.23
2022-09-20T22:41:21.094Z,74.31
2022-09-20T22:43:47.668Z,74.48
2022-09-20T22:46:17.044Z,74.19
2022-09-20T22:48:44.331Z,74.42
2022-09-20T22:51:12.453Z,75.22
2022-09-20T22:53:39.100Z,74.59
2022-09-20T22:56:13.464Z,74.65
2022-09-20T22:58:42.253Z,74.19
2022-09-20T23:01:14.191Z,74.09
2022-09-20T23:03:44.622Z,74.88
2022-09-20T23:06:13.901Z,74.71
2022-09-20T23:08:40.469Z,74.93
2022-09-20T23:11:07.308Z,74.75
2022-09-20T23:13:34.067Z,74.66
2022-09-20T23:16:00.672Z,74.64
2022-09-20T23:18:27.320Z,74.51
2022-09-20T23:21:03.915Z,75.79
2022-09-20T23:23:30.605Z,75.93
2022-09-20T23:26:07.889Z,75.59
2022-09-20T23:28:36.733Z,75.66
2022-09-20T23:31:06.033Z,76.26
2022-09-20T23:33:33.108Z,76.61
2022-09-20T23:36:00.404Z,76.24
2022-09-20T23:38:27.254Z,76.10
2022-09-20T23:40:54.316Z,75.76
2022-09-20T23:43:21.009Z,75.85
2022-09-20T23:45:47.602Z,76.44
2022-09-20T23:48:14.131Z,76.95
2022-09-20T23:50:43.045Z,76.84
2022-09-20T23:53:09.665Z,76.78
2022-09-20T23:55:36.177Z,77.33
2022-09-20T23:58:02.888Z,76.72
